createdAt,value
2023-06-19T00:01:07.688Z,14.73
2023-06-19T00:03:34.604Z,14.65
2023-06-19T00:06:01.367Z,14.58
2023-06-19T00:08:28.351Z,14.53
2023-06-19T00:10:56.223Z,14.55
2023-06-19T00:13:23.075Z,14.58
2023-06-19T00:15:51.544Z,14.58
2023-06-19T00:18:21.735Z,14.60
2023-06-19T00:20:49.183Z,14.60
2023-06-19T00:23:18.276Z,14.57
2023-06-19T00:25:46.298Z,14.55
2023-06-19T00:28:15.133Z,14.53
2023-06-19T00:30:42.857Z,14.47
2023-06-19T00:33:11.547Z,14.40
2023-06-19T00:35:40.268Z,14.37
2023-06-19T00:38:09.454Z,14.39
2023-06-19T00:40:36.543Z,14.40
2023-06-19T00:43:04.046Z,14.42
2023-06-19T00:45:31.178Z,14.41
2023-06-19T00:47:59.802Z,14.38
2023-06-19T00:50:27.434Z,14.36
2023-06-19T00:52:55.368Z,14.33
2023-06-19T00:55:23.202Z,14.29
2023-06-19T00:57:54.107Z,14.26
2023-06-19T01:00:21.094Z,14.21
2023-06-19T01:02:48.983Z,14.15
2023-06-19T01:05:17.719Z,14.12
2023-06-19T01:07:58.829Z,14.05
2023-06-19T01:10:41.545Z,14.00
2023-06-19T01:13:15.243Z,13.94
2023-06-19T01:15:43.370Z,13.90
2023-06-19T01:18:14.431Z,13.88
2023-06-19T01:20:41.529Z,13.84
2023-06-19T01:23:12.864Z,13.80
2023-06-19T01:25:40.853Z,13.68
2023-06-19T01:28:12.686Z,13.58
2023-06-19T01:30:43.467Z,13.41
2023-06-19T01:33:12.309Z,13.28
2023-06-19T01:35:43.311Z,13.19
2023-06-19T01:38:11.902Z,13.15
2023-06-19T01:40:39.288Z,13.16
2023-06-19T01:43:09.634Z,13.19
2023-06-19T01:45:38.088Z,13.25
2023-06-19T01:48:05.300Z,13.31
2023-06-19T01:50:32.137Z,13.32
2023-06-19T01:52:58.921Z,13.35
2023-06-19T01:55:25.705Z,13.39
2023-06-19T01:57:54.141Z,13.40
2023-06-19T02:00:21.042Z,13.40
2023-06-19T02:02:49.625Z,13.37
2023-06-19T02:05:16.580Z,13.35
2023-06-19T02:07:43.420Z,13.34
2023-06-19T02:10:11.555Z,13.32
2023-06-19T02:12:38.276Z,13.30
2023-06-19T02:15:05.846Z,13.28
2023-06-19T02:17:33.186Z,13.24
2023-06-19T02:19:59.946Z,13.23
2023-06-19T02:22:27.725Z,13.23
2023-06-19T02:24:54.604Z,13.22
2023-06-19T02:27:23.409Z,13.21
2023-06-19T02:29:50.185Z,13.17
2023-06-19T02:32:16.942Z,13.17
2023-06-19T02:34:43.842Z,13.15
2023-06-19T02:37:10.649Z,13.16
2023-06-19T02:39:37.382Z,13.16
2023-06-19T02:42:04.388Z,13.15
2023-06-19T02:44:31.443Z,13.16
2023-06-19T02:46:58.179Z,13.18
2023-06-19T02:49:26.109Z,13.19
2023-06-19T02:51:52.864Z,13.21
2023-06-19T02:54:19.610Z,13.23
2023-06-19T02:56:46.465Z,13.25
2023-06-19T02:59:13.229Z,13.30
2023-06-19T03:01:40.025Z,13.34
2023-06-19T03:04:07.602Z,13.38
2023-06-19T03:06:40.360Z,13.40
2023-06-19T03:09:13.695Z,13.45
2023-06-19T03:11:42.450Z,13.51
2023-06-19T03:14:12.206Z,13.54
2023-06-19T03:16:38.816Z,13.59
2023-06-19T03:19:05.562Z,13.60
2023-06-19T03:21:32.304Z,13.66
2023-06-19T03:23:59.190Z,13.71
2023-06-19T03:26:28.659Z,13.78
2023-06-19T03:28:55.585Z,13.87
2023-06-19T03:31:22.352Z,13.93
2023-06-19T03:33:49.161Z,13.99
2023-06-19T03:36:15.974Z,14.08
2023-06-19T03:38:42.729Z,14.18
2023-06-19T03:41:09.529Z,14.25
2023-06-19T03:43:36.298Z,14.33
2023-06-19T03:46:03.212Z,14.42
2023-06-19T03:48:30.064Z,14.50
2023-06-19T03:50:56.972Z,14.57
2023-06-19T03:53:23.903Z,14.66
2023-06-19T03:55:50.612Z,14.76
2023-06-19T03:58:17.375Z,14.86
2023-06-19T04:00:44.204Z,14.95
2023-06-19T04:03:11.193Z,15.04
2023-06-19T04:05:38.532Z,15.12
2023-06-19T04:08:06.648Z,15.24
2023-06-19T04:10:36.055Z,15.33
2023-06-19T04:13:04.052Z,15.44
2023-06-19T04:15:33.416Z,15.53
2023-06-19T04:18:02.184Z,15.58
2023-06-19T04:20:29.153Z,15.66
2023-06-19T04:22:55.949Z,15.72
2023-06-19T04:25:22.786Z,15.76
2023-06-19T04:27:50.089Z,15.81
2023-06-19T04:30:16.867Z,15.86
2023-06-19T04:32:43.689Z,15.90
2023-06-19T04:35:11.401Z,15.95
2023-06-19T04:37:38.480Z,16.03
2023-06-19T04:40:06.033Z,16.09
2023-06-19T04:42:34.171Z,16.17
2023-06-19T04:45:01.101Z,16.24
2023-06-19T04:47:36.308Z,16.31
2023-06-19T04:50:09.082Z,16.37
2023-06-19T04:52:36.148Z,16.47
2023-06-19T04:55:03.168Z,16.58
2023-06-19T04:57:29.937Z,16.68
2023-06-19T04:59:56.762Z,16.80
2023-06-19T05:02:33.749Z,16.91
2023-06-19T05:05:03.737Z,17.04
2023-06-19T05:07:34.285Z,17.19
2023-06-19T05:10:01.093Z,17.39
2023-06-19T05:12:27.885Z,18.19
2023-06-19T05:14:54.681Z,19.52
2023-06-19T05:17:21.771Z,20.87
2023-06-19T05:19:49.364Z,22.21
2023-06-19T05:22:16.357Z,23.55
2023-06-19T05:24:43.265Z,24.83
2023-06-19T05:27:10.773Z,26.10
2023-06-19T05:29:37.554Z,27.29
2023-06-19T05:32:04.758Z,28.40
2023-06-19T05:34:31.609Z,29.34
2023-06-19T05:37:02.030Z,30.29
2023-06-19T05:39:28.767Z,31.27
2023-06-19T05:41:56.404Z,32.03
2023-06-19T05:44:23.251Z,32.65
2023-06-19T05:46:50.280Z,33.29
2023-06-19T05:49:17.014Z,33.92
2023-06-19T05:51:45.368Z,34.69
2023-06-19T05:54:12.102Z,35.22
2023-06-19T05:56:41.034Z,35.63
2023-06-19T05:59:07.986Z,36.11
2023-06-19T06:01:34.828Z,36.82
2023-06-19T06:04:03.002Z,37.58
2023-06-19T06:06:29.832Z,38.34
2023-06-19T06:08:56.626Z,38.88
2023-06-19T06:11:26.406Z,39.43
2023-06-19T06:13:53.216Z,40.10
2023-06-19T06:16:20.082Z,40.76
2023-06-19T06:18:47.364Z,41.30
2023-06-19T06:21:14.428Z,41.70
2023-06-19T06:23:46.234Z,42.26
2023-06-19T06:26:13.189Z,42.77
2023-06-19T06:28:40.578Z,43.06
2023-06-19T06:31:07.819Z,43.07
2023-06-19T06:33:34.542Z,43.21
2023-06-19T06:36:01.296Z,43.52
2023-06-19T06:38:28.272Z,43.73
2023-06-19T06:40:55.430Z,43.98
2023-06-19T06:43:22.361Z,44.23
2023-06-19T06:45:49.317Z,44.40
2023-06-19T06:48:17.176Z,44.64
2023-06-19T06:50:44.634Z,44.77
2023-06-19T06:53:11.446Z,44.89
2023-06-19T06:55:38.254Z,45.24
2023-06-19T06:58:06.469Z,45.71
2023-06-19T07:00:34.402Z,45.93
2023-06-19T07:03:01.308Z,46.13
2023-06-19T07:05:30.214Z,46.32
2023-06-19T07:07:56.962Z,46.71
2023-06-19T07:10:24.549Z,47.14
2023-06-19T07:12:52.801Z,47.62
2023-06-19T07:15:19.982Z,48.09
2023-06-19T07:17:46.852Z,48.32
2023-06-19T07:20:14.056Z,48.65
2023-06-19T07:22:41.894Z,48.91
2023-06-19T07:25:09.602Z,49.14
2023-06-19T07:27:36.462Z,49.36
2023-06-19T07:30:03.360Z,49.55
2023-06-19T07:32:30.496Z,49.79
2023-06-19T07:34:57.422Z,50.15
2023-06-19T07:37:24.222Z,50.45
2023-06-19T07:39:52.385Z,50.65
2023-06-19T07:42:20.466Z,50.82
2023-06-19T07:44:47.754Z,50.87
2023-06-19T07:47:20.001Z,51.09
2023-06-19T07:49:47.008Z,51.37
2023-06-19T07:52:14.750Z,51.72
2023-06-19T07:54:58.784Z,51.91
2023-06-19T07:57:26.762Z,52.16
2023-06-19T07:59:55.490Z,52.45
2023-06-19T08:02:22.689Z,52.55
2023-06-19T08:04:49.792Z,52.76
2023-06-19T08:07:16.639Z,52.92
2023-06-19T08:09:43.421Z,52.84
2023-06-19T08:12:10.236Z,52.64
2023-06-19T08:14:36.997Z,52.49
2023-06-19T08:17:04.196Z,52.38
2023-06-19T08:19:30.964Z,52.42
2023-06-19T08:21:57.740Z,52.36
2023-06-19T08:24:24.644Z,52.45
2023-06-19T08:26:52.558Z,52.34
2023-06-19T08:29:20.132Z,52.24
2023-06-19T08:31:47.338Z,52.28
2023-06-19T08:34:14.212Z,52.26
2023-06-19T08:36:41.155Z,52.29
2023-06-19T08:39:09.470Z,52.21
2023-06-19T08:41:38.817Z,52.33
2023-06-19T08:44:06.886Z,52.47
2023-06-19T08:46:35.711Z,52.61
2023-06-19T08:49:02.851Z,52.73
2023-06-19T08:51:32.626Z,52.72
2023-06-19T08:54:07.820Z,52.67
2023-06-19T08:56:36.040Z,52.28
2023-06-19T08:59:13.688Z,50.57
2023-06-19T09:01:42.920Z,49.65
2023-06-19T09:04:14.473Z,49.29
2023-06-19T09:06:54.205Z,48.86
2023-06-19T09:09:22.517Z,48.66
2023-06-19T09:11:58.453Z,48.53
2023-06-19T09:14:35.505Z,48.38
2023-06-19T09:17:08.177Z,47.94
2023-06-19T09:19:38.953Z,47.15
2023-06-19T09:22:07.976Z,46.22
2023-06-19T09:24:41.248Z,45.16
2023-06-19T09:27:10.554Z,44.04
2023-06-19T09:29:39.755Z,42.99
2023-06-19T09:32:18.855Z,42.00
2023-06-19T09:34:45.989Z,41.10
2023-06-19T09:37:13.035Z,39.97
2023-06-19T09:39:41.094Z,38.93
2023-06-19T09:42:08.634Z,37.91
2023-06-19T09:44:46.416Z,37.12
2023-06-19T09:47:18.526Z,36.44
2023-06-19T09:49:50.787Z,35.84
2023-06-19T09:52:18.366Z,35.16
2023-06-19T09:54:45.334Z,34.41
2023-06-19T09:57:12.170Z,33.85
2023-06-19T09:59:42.546Z,33.40
2023-06-19T10:02:10.660Z,32.94
2023-06-19T10:04:50.351Z,32.29
2023-06-19T10:07:22.149Z,31.71
2023-06-19T10:10:07.420Z,31.20
2023-06-19T10:12:45.463Z,30.75
2023-06-19T10:15:14.961Z,30.49
2023-06-19T10:17:47.818Z,30.29
2023-06-19T10:20:35.145Z,30.07
2023-06-19T10:23:06.488Z,29.79
2023-06-19T10:25:42.573Z,29.54
2023-06-19T10:28:23.758Z,29.24
2023-06-19T10:30:58.087Z,28.91
2023-06-19T10:33:27.283Z,28.63
2023-06-19T10:35:54.330Z,28.31
2023-06-19T10:38:21.181Z,28.04
2023-06-19T10:40:48.765Z,27.96
2023-06-19T10:43:24.163Z,27.85
2023-06-19T10:45:52.054Z,27.73
2023-06-19T10:48:23.674Z,27.72
2023-06-19T10:50:51.466Z,27.66
2023-06-19T10:53:26.028Z,27.67
2023-06-19T10:55:57.394Z,27.70
2023-06-19T10:58:24.586Z,27.70
2023-06-19T11:00:51.680Z,27.77
2023-06-19T11:03:20.414Z,27.85
2023-06-19T11:05:48.401Z,27.87
2023-06-19T11:08:20.165Z,27.81
2023-06-19T11:10:47.286Z,27.64
2023-06-19T11:13:20.515Z,27.48
2023-06-19T11:15:51.834Z,27.46
2023-06-19T11:18:20.057Z,27.44
2023-06-19T11:20:52.070Z,27.52
2023-06-19T11:23:27.970Z,27.51
2023-06-19T11:25:55.059Z,27.46
2023-06-19T11:28:24.721Z,27.51
2023-06-19T11:31:01.830Z,27.52
2023-06-19T11:33:31.748Z,27.49
2023-06-19T11:36:02.048Z,27.38
2023-06-19T11:38:31.533Z,27.14
2023-06-19T11:40:58.356Z,26.91
2023-06-19T11:43:30.002Z,26.76
2023-06-19T11:46:11.699Z,26.76
2023-06-19T11:48:39.100Z,26.75
2023-06-19T11:51:06.295Z,26.77
2023-06-19T11:53:33.215Z,26.86
2023-06-19T11:56:00.129Z,27.04
2023-06-19T11:58:26.902Z,27.18
2023-06-19T12:00:57.188Z,27.35
2023-06-19T12:03:24.190Z,27.47
2023-06-19T12:05:51.146Z,27.54
2023-06-19T12:08:17.919Z,27.58
2023-06-19T12:10:46.106Z,27.51
2023-06-19T12:13:13.165Z,27.39
2023-06-19T12:15:40.144Z,27.35
2023-06-19T12:18:08.472Z,27.39
2023-06-19T12:20:35.389Z,27.48
2023-06-19T12:23:02.244Z,27.51
2023-06-19T12:25:29.006Z,27.57
2023-06-19T12:27:56.001Z,27.56
2023-06-19T12:30:23.718Z,27.53
2023-06-19T12:32:51.943Z,27.43
2023-06-19T12:35:19.567Z,27.24
2023-06-19T12:37:46.973Z,27.14
2023-06-19T12:40:14.178Z,27.13
2023-06-19T12:42:41.229Z,27.08
2023-06-19T12:45:09.077Z,27.07
2023-06-19T12:47:35.896Z,27.11
2023-06-19T12:50:02.740Z,27.07
2023-06-19T12:52:29.609Z,26.98
2023-06-19T12:54:56.399Z,26.91
2023-06-19T12:57:23.215Z,26.86
2023-06-19T12:59:50.376Z,26.85
2023-06-19T13:02:17.153Z,26.85
2023-06-19T13:04:44.077Z,26.80
2023-06-19T13:07:11.011Z,26.77
2023-06-19T13:09:38.030Z,26.72
2023-06-19T13:12:05.167Z,26.68
2023-06-19T13:14:33.169Z,26.66
2023-06-19T13:17:01.137Z,26.67
2023-06-19T13:19:28.850Z,26.64
2023-06-19T13:21:56.161Z,26.58
2023-06-19T13:24:22.971Z,26.55
2023-06-19T13:26:49.934Z,26.61
2023-06-19T13:29:16.675Z,26.70
2023-06-19T13:31:45.993Z,26.76
2023-06-19T13:34:12.852Z,26.80
2023-06-19T13:36:41.035Z,26.86
2023-06-19T13:39:07.895Z,26.91
2023-06-19T13:41:35.705Z,26.97
2023-06-19T13:44:02.957Z,27.04
2023-06-19T13:46:32.932Z,26.97
2023-06-19T13:49:00.024Z,26.88
2023-06-19T13:51:26.917Z,26.88
2023-06-19T13:53:53.741Z,26.91
2023-06-19T13:56:20.644Z,26.88
2023-06-19T13:58:47.824Z,26.82
2023-06-19T14:01:15.813Z,26.75
2023-06-19T14:03:42.813Z,26.68
2023-06-19T14:06:10.812Z,26.65
2023-06-19T14:08:37.676Z,26.61
2023-06-19T14:11:04.764Z,26.55
2023-06-19T14:13:31.549Z,26.53
2023-06-19T14:15:58.644Z,26.54
2023-06-19T14:18:25.490Z,26.49
2023-06-19T14:20:52.538Z,26.53
2023-06-19T14:23:19.376Z,26.55
2023-06-19T14:25:46.175Z,26.56
2023-06-19T14:28:15.321Z,26.64
2023-06-19T14:30:42.040Z,26.71
2023-06-19T14:33:11.659Z,26.72
2023-06-19T14:35:38.433Z,26.77
2023-06-19T14:38:05.285Z,26.85
2023-06-19T14:40:32.095Z,26.91
2023-06-19T14:43:00.043Z,26.91
2023-06-19T14:45:26.890Z,26.86
2023-06-19T14:47:53.877Z,26.86
2023-06-19T14:50:21.137Z,26.93
2023-06-19T14:52:48.021Z,27.02
2023-06-19T14:55:14.773Z,27.10
2023-06-19T14:57:41.608Z,27.19
2023-06-19T15:00:09.091Z,27.18
2023-06-19T15:02:40.026Z,27.19
2023-06-19T15:05:09.338Z,27.28
2023-06-19T15:07:36.105Z,27.37
2023-06-19T15:10:03.276Z,27.41
2023-06-19T15:12:30.135Z,27.30
2023-06-19T15:14:56.885Z,27.14
2023-06-19T15:17:23.647Z,27.06
2023-06-19T15:19:51.550Z,27.03
2023-06-19T15:22:18.383Z,27.02
2023-06-19T15:24:45.172Z,27.00
2023-06-19T15:27:12.926Z,26.96
2023-06-19T15:29:40.080Z,27.01
2023-06-19T15:32:07.235Z,27.07
2023-06-19T15:34:34.505Z,27.11
2023-06-19T15:37:01.306Z,27.12
2023-06-19T15:39:28.710Z,27.12
2023-06-19T15:41:57.056Z,27.07
2023-06-19T15:44:23.783Z,27.04
2023-06-19T15:46:50.700Z,27.04
2023-06-19T15:49:18.844Z,27.00
2023-06-19T15:51:45.621Z,26.92
2023-06-19T15:54:12.743Z,26.87
2023-06-19T15:56:40.814Z,26.84
2023-06-19T15:59:07.628Z,26.84
2023-06-19T16:01:34.468Z,26.84
2023-06-19T16:04:02.005Z,26.85
2023-06-19T16:06:28.911Z,26.83
2023-06-19T16:08:57.845Z,26.81
2023-06-19T16:11:25.756Z,26.78
2023-06-19T16:13:53.353Z,26.73
2023-06-19T16:16:20.501Z,26.68
2023-06-19T16:18:47.380Z,26.67
2023-06-19T16:21:16.399Z,26.65
2023-06-19T16:23:44.276Z,26.57
2023-06-19T16:26:11.737Z,26.44
2023-06-19T16:28:38.824Z,26.33
2023-06-19T16:31:06.578Z,26.25
2023-06-19T16:33:33.393Z,26.19
2023-06-19T16:36:00.214Z,26.15
2023-06-19T16:38:27.726Z,26.13
2023-06-19T16:40:54.525Z,26.06
2023-06-19T16:43:21.431Z,26.04
2023-06-19T16:45:48.198Z,26.00
2023-06-19T16:48:15.026Z,25.94
2023-06-19T16:50:41.834Z,25.85
2023-06-19T16:53:08.666Z,25.81
2023-06-19T16:55:36.642Z,25.78
2023-06-19T16:58:04.585Z,25.78
2023-06-19T17:00:31.736Z,25.78
2023-06-19T17:02:59.671Z,25.78
2023-06-19T17:05:28.038Z,25.73
2023-06-19T17:07:54.979Z,25.59
2023-06-19T17:10:24.133Z,25.51
2023-06-19T17:12:51.317Z,25.42
2023-06-19T17:15:18.632Z,25.38
2023-06-19T17:17:45.546Z,25.33
2023-06-19T17:20:13.514Z,25.28
2023-06-19T17:22:40.519Z,25.21
2023-06-19T17:25:08.399Z,25.16
2023-06-19T17:27:35.512Z,25.12
2023-06-19T17:30:02.722Z,25.05
2023-06-19T17:32:30.056Z,24.95
2023-06-19T17:34:58.583Z,24.85
2023-06-19T17:37:26.925Z,24.78
2023-06-19T17:39:53.682Z,24.69
2023-06-19T17:42:21.098Z,24.61
2023-06-19T17:44:47.870Z,24.51
2023-06-19T17:47:15.854Z,24.41
2023-06-19T17:49:45.837Z,24.25
2023-06-19T17:52:12.809Z,24.14
2023-06-19T17:54:39.533Z,24.07
2023-06-19T17:57:06.552Z,23.93
2023-06-19T17:59:34.764Z,23.82
2023-06-19T18:02:01.838Z,23.73
2023-06-19T18:04:28.614Z,23.61
2023-06-19T18:06:55.433Z,23.53
2023-06-19T18:09:22.237Z,23.45
2023-06-19T18:11:49.019Z,23.37
2023-06-19T18:14:15.825Z,23.28
2023-06-19T18:16:44.068Z,23.19
2023-06-19T18:19:10.907Z,23.10
2023-06-19T18:21:37.719Z,22.99
2023-06-19T18:24:05.642Z,22.92
2023-06-19T18:26:32.447Z,22.85
2023-06-19T18:28:59.246Z,22.76
2023-06-19T18:31:26.134Z,22.70
2023-06-19T18:33:53.142Z,22.62
2023-06-19T18:36:20.054Z,22.55
2023-06-19T18:38:47.000Z,22.47
2023-06-19T18:41:16.053Z,22.40
2023-06-19T18:43:42.789Z,22.32
2023-06-19T18:46:09.568Z,22.25
2023-06-19T18:48:36.320Z,22.18
2023-06-19T18:51:03.047Z,22.12
2023-06-19T18:53:29.876Z,22.06
2023-06-19T18:55:57.016Z,21.98
2023-06-19T18:58:23.781Z,21.89
2023-06-19T19:00:50.547Z,21.81
2023-06-19T19:03:18.873Z,21.72
2023-06-19T19:05:46.693Z,21.63
2023-06-19T19:08:14.451Z,21.55
2023-06-19T19:10:41.664Z,21.49
2023-06-19T19:13:09.450Z,21.41
2023-06-19T19:15:37.508Z,21.34
2023-06-19T19:18:05.362Z,21.29
2023-06-19T19:20:32.177Z,21.23
2023-06-19T19:22:58.977Z,21.18
2023-06-19T19:25:25.943Z,21.12
2023-06-19T19:27:52.825Z,21.07
2023-06-19T19:30:19.701Z,21.01
2023-06-19T19:32:46.778Z,20.93
2023-06-19T19:35:13.574Z,20.87
2023-06-19T19:37:40.596Z,20.82
2023-06-19T19:40:07.950Z,20.74
2023-06-19T19:42:34.726Z,20.68
2023-06-19T19:45:05.481Z,20.63
2023-06-19T19:47:33.183Z,20.57
2023-06-19T19:50:00.028Z,20.47
2023-06-19T19:52:26.889Z,20.29
2023-06-19T19:54:54.285Z,20.14
2023-06-19T19:57:22.202Z,20.05
2023-06-19T19:59:48.943Z,20.04
2023-06-19T20:02:18.614Z,20.03
2023-06-19T20:04:48.230Z,20.03
2023-06-19T20:07:15.136Z,20.02
2023-06-19T20:09:44.901Z,20.01
2023-06-19T20:12:21.589Z,19.99
2023-06-19T20:14:49.105Z,19.97
2023-06-19T20:17:16.511Z,19.95
2023-06-19T20:19:43.378Z,19.93
2023-06-19T20:22:10.218Z,19.90
2023-06-19T20:24:39.317Z,19.90
2023-06-19T20:27:06.776Z,19.88
2023-06-19T20:29:34.162Z,19.85
2023-06-19T20:32:01.077Z,19.84
2023-06-19T20:34:29.551Z,19.82
2023-06-19T20:36:57.882Z,19.81
2023-06-19T20:39:24.837Z,19.79
2023-06-19T20:41:51.608Z,19.76
2023-06-19T20:44:18.920Z,19.74
2023-06-19T20:46:46.082Z,19.72
2023-06-19T20:49:12.830Z,19.70
2023-06-19T20:51:39.653Z,19.66
2023-06-19T20:54:06.427Z,19.63
2023-06-19T20:56:33.228Z,19.58
2023-06-19T20:59:00.032Z,19.55
2023-06-19T21:01:27.052Z,19.52
2023-06-19T21:03:53.841Z,19.50
2023-06-19T21:06:23.416Z,19.47
2023-06-19T21:08:50.186Z,19.45
2023-06-19T21:11:17.425Z,19.42
2023-06-19T21:13:44.265Z,19.41
2023-06-19T21:16:12.086Z,19.39
2023-06-19T21:18:39.239Z,19.36
2023-06-19T21:21:06.119Z,19.33
2023-06-19T21:23:32.939Z,19.28
2023-06-19T21:25:59.732Z,19.24
2023-06-19T21:28:26.522Z,19.20
2023-06-19T21:30:53.281Z,19.15
2023-06-19T21:33:22.276Z,19.13
2023-06-19T21:35:51.376Z,19.08
2023-06-19T21:38:18.312Z,19.07
2023-06-19T21:40:45.202Z,19.09
2023-06-19T21:43:11.979Z,19.12
2023-06-19T21:45:38.733Z,19.13
2023-06-19T21:48:05.850Z,19.15
2023-06-19T21:50:32.663Z,19.16
2023-06-19T21:52:59.431Z,19.18
2023-06-19T21:55:26.165Z,19.18
2023-06-19T21:58:00.033Z,19.19
2023-06-19T22:00:28.870Z,19.19
2023-06-19T22:02:57.519Z,19.17
2023-06-19T22:05:24.777Z,19.17
2023-06-19T22:07:51.517Z,19.17
2023-06-19T22:10:18.652Z,19.18
2023-06-19T22:12:45.755Z,19.18
2023-06-19T22:15:13.081Z,19.17
2023-06-19T22:17:46.400Z,19.15
2023-06-19T22:20:21.896Z,19.13
2023-06-19T22:22:49.181Z,19.06
2023-06-19T22:25:16.515Z,19.01
2023-06-19T22:27:45.819Z,18.96
2023-06-19T22:30:14.762Z,18.93
2023-06-19T22:32:42.142Z,18.89
2023-06-19T22:35:09.292Z,18.87
2023-06-19T22:37:36.362Z,18.85
2023-06-19T22:40:08.777Z,18.84
2023-06-19T22:42:39.199Z,18.82
2023-06-19T22:45:10.374Z,18.81
2023-06-19T22:47:40.013Z,18.80
2023-06-19T22:50:11.789Z,18.79
2023-06-19T22:52:39.262Z,18.77
2023-06-19T22:55:06.758Z,18.77
2023-06-19T22:57:36.070Z,18.78
2023-06-19T23:00:14.337Z,18.81
2023-06-19T23:02:45.549Z,18.85
2023-06-19T23:05:13.709Z,18.90
2023-06-19T23:07:42.305Z,18.95
2023-06-19T23:10:09.363Z,18.99
2023-06-19T23:12:36.885Z,18.98
2023-06-19T23:15:04.046Z,18.94
2023-06-19T23:17:30.803Z,18.91
2023-06-19T23:19:59.519Z,18.85
2023-06-19T23:22:27.077Z,18.82
2023-06-19T23:24:54.531Z,18.78
2023-06-19T23:27:21.465Z,18.76
2023-06-19T23:29:48.338Z,18.78
2023-06-19T23:32:15.056Z,18.82
2023-06-19T23:34:41.855Z,18.85
2023-06-19T23:37:08.640Z,18.88
2023-06-19T23:39:36.535Z,18.92
2023-06-19T23:42:04.238Z,18.94
2023-06-19T23:44:31.327Z,18.93
2023-06-19T23:46:58.160Z,18.93
2023-06-19T23:49:24.890Z,18.91
2023-06-19T23:51:51.754Z,18.89
2023-06-19T23:54:18.532Z,18.85
2023-06-19T23:56:46.340Z,18.80
2023-06-19T23:59:13.122Z,18.72
